.
WxDataArchive / Data Records for 2006-01-27
2006-01-26 January 2006 2006-01-28

Data Records for Friday, 27 January 2006

Time	Temp	Chill	HIndex	Humid	Dewpt	 Wind 	HiWind	WindDir	Rain 	Barom 
-----	----	-----	------	-----	-----	------	------	-------	-----	----- 
00:00	26.0	26.0	26.0	83	21.6	0	0	---	0.00	30.513 
00:05	25.8	25.8	25.8	83	21.4	0	0	---	0.00	30.513 
00:10	25.8	25.8	25.8	83	21.4	0	0	---	0.00	30.513 
00:15	25.8	25.8	25.8	84	21.6	0	0	---	0.00	30.513 
00:20	25.7	25.7	25.7	84	21.5	0	0	---	0.00	30.513 
00:25	25.6	25.6	25.6	84	21.5	0	0	---	0.00	30.513 
00:30	25.6	25.6	25.6	84	21.5	0	0	---	0.00	30.508 
00:35	25.6	25.6	25.6	85	21.7	0	0	---	0.00	30.508 
00:40	25.6	25.6	25.6	84	21.5	0	0	---	0.00	30.508 
00:45	25.4	25.4	25.4	84	21.3	0	0	---	0.00	30.507 
00:50	25.3	25.3	25.3	84	21.2	0	0	---	0.00	30.507 
00:55	25.3	25.3	25.3	85	21.4	0	0	---	0.00	30.507 
01:00	25.3	25.3	25.3	84	21.2	0	0	---	0.00	30.507 
01:05	25.3	25.3	25.3	85	21.4	0	0	---	0.00	30.507 
01:10	25.1	25.1	25.1	85	21.2	0	0	---	0.00	30.507 
01:15	25.3	25.3	25.3	84	21.2	0	0	---	0.00	30.504 
01:20	25.1	25.1	25.1	84	21.0	0	0	---	0.00	30.504 
01:25	25.1	25.1	25.1	84	21.0	0	0	---	0.00	30.504 
01:30	25.1	25.1	25.1	84	21.0	0	0	---	0.00	30.503 
01:35	25.3	25.3	25.3	84	21.2	0	0	---	0.00	30.503 
01:40	25.3	25.3	25.3	84	21.2	0	0	---	0.00	30.503 
01:45	25.3	25.3	25.3	84	21.2	0	0	---	0.00	30.502 
01:50	25.6	25.6	25.6	84	21.5	0	1	90	0.00	30.502 
01:55	25.8	25.8	25.8	83	21.4	0	1	90	0.00	30.502 
02:00	26.1	26.1	26.1	81	21.1	0	1	90	0.00	30.503 
02:05	26.4	26.4	26.4	81	21.4	0	0	---	0.00	30.503 
02:10	26.7	26.7	26.7	79	21.1	0	0	---	0.00	30.503 
02:15	26.9	26.9	26.9	79	21.3	0	0	---	0.00	30.498 
02:20	27.0	27.0	27.0	79	21.4	0	1	90	0.00	30.498 
02:25	27.3	27.3	27.3	77	21.1	0	0	---	0.00	30.498 
02:30	27.5	27.5	27.5	76	20.9	0	0	---	0.00	30.499 
02:35	27.5	27.5	27.5	77	21.3	0	1	90	0.00	30.499 
02:40	27.5	27.5	27.5	77	21.3	0	1	90	0.00	30.499 
02:45	27.6	27.6	27.6	76	21.0	0	0	---	0.00	30.501 
02:50	27.5	27.5	27.5	76	20.9	0	0	---	0.00	30.501 
02:55	27.3	27.3	27.3	76	20.8	0	0	---	0.00	30.501 
03:00	27.0	27.0	27.0	77	20.8	0	0	---	0.00	30.505 
03:05	26.7	26.7	26.7	77	20.5	0	0	---	0.00	30.505 
03:10	26.6	26.6	26.6	78	20.7	0	0	---	0.00	30.505 
03:15	26.4	26.4	26.4	78	20.5	0	0	---	0.00	30.512 
03:20	26.3	26.3	26.3	79	20.7	0	0	---	0.00	30.512 
03:25	26.3	26.3	26.3	79	20.7	0	0	---	0.00	30.512 
03:30	26.1	26.1	26.1	79	20.5	0	0	---	0.00	30.509 
03:35	26.1	26.1	26.1	80	20.8	0	0	---	0.00	30.509 
03:40	26.0	26.0	26.0	79	20.4	0	0	---	0.00	30.509 
03:45	26.0	26.0	26.0	79	20.4	0	0	---	0.00	30.508 
03:50	26.4	26.4	26.4	78	20.5	0	2	90	0.00	30.508 
03:55	27.2	27.2	27.2	77	21.0	0	1	90	0.00	30.508 
04:00	27.6	27.6	27.6	76	21.0	0	1	90	0.00	30.503 
04:05	27.9	27.9	27.9	75	21.0	0	1	90	0.00	30.503 
04:10	27.9	27.9	27.9	74	20.7	0	1	90	0.00	30.503 
04:15	27.8	27.8	27.8	75	20.9	0	0	---	0.00	30.502 
04:20	27.6	27.6	27.6	75	20.7	0	0	---	0.00	30.502 
04:25	27.3	27.3	27.3	76	20.8	0	0	---	0.00	30.502 
04:30	27.0	27.0	27.0	76	20.5	0	0	---	0.00	30.502 
04:35	26.9	26.9	26.9	76	20.4	0	0	---	0.00	30.502 
04:40	26.6	26.6	26.6	77	20.4	0	0	---	0.00	30.502 
04:45	26.4	26.4	26.4	78	20.5	0	0	---	0.00	30.505 
04:50	26.3	26.3	26.3	78	20.4	0	0	---	0.00	30.505 
04:55	26.0	26.0	26.0	78	20.1	0	0	---	0.00	30.505 
05:00	25.7	25.7	25.7	79	20.1	0	0	---	0.00	30.504 
05:05	25.4	25.4	25.4	79	19.8	0	0	---	0.00	30.504 
05:10	25.3	25.3	25.3	80	20.0	0	0	---	0.00	30.504 
05:15	25.1	25.1	25.1	81	20.1	0	0	---	0.00	30.502 
05:20	25.1	25.1	25.1	81	20.1	0	1	90	0.00	30.502 
05:25	25.4	25.4	25.4	81	20.4	0	1	90	0.00	30.502 
05:30	25.6	25.6	25.6	81	20.6	0	0	---	0.00	30.501 
05:35	25.6	25.6	25.6	80	20.3	0	0	---	0.00	30.501 
05:40	25.4	25.4	25.4	80	20.1	0	0	---	0.00	30.501 
05:45	25.4	25.4	25.4	81	20.4	0	0	---	0.00	30.504 
05:50	25.4	25.4	25.4	81	20.4	0	0	---	0.00	30.504 
05:55	25.6	25.6	25.6	81	20.6	0	1	90	0.00	30.504 
06:00	26.0	26.0	26.0	80	20.7	0	1	90	0.00	30.504 
06:05	26.4	26.4	26.4	78	20.5	0	1	90	0.00	30.504 
06:10	26.6	26.6	26.6	78	20.7	0	1	90	0.00	30.504 
06:15	26.7	26.7	26.7	78	20.8	0	1	90	0.00	30.500 
06:20	26.7	26.7	26.7	77	20.5	0	0	---	0.00	30.500 
06:25	26.6	26.6	26.6	78	20.7	0	0	---	0.00	30.500 
06:30	26.6	26.6	26.6	78	20.7	0	0	---	0.00	30.500 
06:35	26.3	26.3	26.3	78	20.4	0	0	---	0.00	30.500 
06:40	26.1	26.1	26.1	79	20.5	0	0	---	0.00	30.500 
06:45	26.0	26.0	26.0	79	20.4	0	0	---	0.00	30.500 
06:50	25.8	25.8	25.8	80	20.5	0	0	---	0.00	30.500 
06:55	26.0	26.0	26.0	79	20.4	0	1	90	0.00	30.500 
07:00	26.0	26.0	26.0	80	20.7	0	0	---	0.00	30.496 
07:05	26.0	26.0	26.0	79	20.4	0	0	---	0.00	30.496 
07:10	25.8	25.8	25.8	80	20.5	0	0	---	0.00	30.496 
07:15	25.8	25.8	25.8	80	20.5	0	0	---	0.00	30.498 
07:20	26.0	26.0	26.0	80	20.7	0	1	90	0.00	30.498 
07:25	26.1	26.1	26.1	80	20.8	0	1	90	0.00	30.498 
07:30	26.3	26.3	26.3	79	20.7	0	2	112	0.00	30.496 
07:35	26.6	26.6	26.6	78	20.7	0	1	112	0.00	30.496 
07:40	26.7	26.7	26.7	77	20.5	0	1	112	0.00	30.496 
07:45	26.9	26.9	26.9	77	20.7	0	1	112	0.00	30.496 
07:50	27.0	27.0	27.0	77	20.8	0	1	112	0.00	30.496 
07:55	27.2	27.2	27.2	77	21.0	0	1	112	0.00	30.496 
08:00	27.2	27.2	27.2	77	21.0	0	1	112	0.00	30.494 
08:05	27.5	27.5	27.5	77	21.3	0	1	112	0.00	30.494 
08:10	27.6	27.6	27.6	77	21.4	0	3	225	0.00	30.494 
08:15	27.8	27.8	27.8	77	21.5	0	2	225	0.00	30.489 
08:20	28.1	28.1	28.1	76	21.5	0	2	248	0.00	30.489 
08:25	28.4	28.4	28.4	76	21.8	0	2	248	0.00	30.489 
08:30	28.7	28.7	28.7	76	22.1	0	1	248	0.00	30.487 
08:35	29.3	29.3	29.3	75	22.4	0	3	248	0.00	30.487 
08:40	29.8	29.8	29.8	74	22.5	0	2	225	0.00	30.487 
08:45	30.3	30.3	30.3	74	23.0	0	1	225	0.00	30.487 
08:50	30.7	30.7	30.7	73	23.1	0	2	225	0.00	30.487 
08:55	31.0	31.0	31.0	72	23.1	0	2	225	0.00	30.487 
09:00	31.3	31.3	31.3	71	23.0	0	2	112	0.00	30.476 
09:05	31.3	31.3	31.3	71	23.0	0	3	292	0.00	30.476 
09:10	31.3	31.3	31.3	71	23.0	1	4	270	0.00	30.476 
09:15	31.5	31.5	31.5	71	23.2	1	4	270	0.00	30.477 
09:20	31.6	31.6	31.6	71	23.3	1	4	248	0.00	30.477 
09:25	31.9	31.9	31.9	71	23.6	1	3	248	0.00	30.477 
09:30	32.2	32.2	32.2	70	23.5	1	4	68	0.00	30.476 
09:35	32.5	32.5	32.5	70	23.8	1	7	248	0.00	30.476 
09:40	33.1	33.1	33.1	69	24.1	1	6	248	0.00	30.476 
09:45	33.5	33.5	33.5	68	24.1	2	6	248	0.00	30.475 
09:50	34.0	34.0	34.0	66	23.9	2	5	248	0.00	30.475 
09:55	34.1	34.1	34.1	67	24.3	2	5	270	0.00	30.475 
10:00	34.1	34.1	34.1	67	24.3	2	4	270	0.00	30.474 
10:05	34.1	34.1	34.1	65	23.6	2	7	248	0.00	30.474 
10:10	34.3	34.3	34.3	66	24.1	2	6	90	0.00	30.474 
10:15	34.4	34.4	34.4	67	24.6	1	7	270	0.00	30.470 
10:20	34.7	34.7	34.7	67	24.9	2	5	68	0.00	30.470 
10:25	34.9	34.9	34.9	67	25.1	1	3	90	0.00	30.470 
10:30	35.2	35.2	35.2	67	25.4	1	4	248	0.00	30.457 
10:35	35.6	35.6	35.6	65	25.0	2	5	90	0.00	30.457 
10:40	35.8	35.8	35.8	65	25.2	2	6	90	0.00	30.457 
10:45	36.0	36.0	36.0	65	25.4	2	5	90	0.00	30.452 
10:50	36.3	36.3	36.3	65	25.7	1	4	0	0.00	30.452 
10:55	36.6	36.6	36.6	65	26.0	1	4	22	0.00	30.452 
11:00	37.0	37.0	37.0	65	26.3	1	4	45	0.00	30.449 
11:05	37.3	37.3	37.3	63	25.9	2	5	112	0.00	30.449 
11:10	37.6	37.6	37.6	62	25.8	2	7	270	0.00	30.449 
11:15	37.9	37.9	37.9	62	26.1	2	5	270	0.00	30.445 
11:20	38.2	38.2	38.2	60	25.6	3	6	90	0.00	30.445 
11:25	38.3	38.3	38.3	61	26.0	2	6	90	0.00	30.445 
11:30	38.5	38.5	38.5	61	26.2	2	5	0	0.00	30.441 
11:35	38.6	38.6	38.6	61	26.3	2	4	270	0.00	30.441 
11:40	38.8	38.8	38.8	62	26.9	2	5	270	0.00	30.441 
11:45	39.1	39.1	39.1	59	26.0	2	4	90	0.00	30.429 
11:50	39.3	39.3	39.3	62	27.4	1	3	270	0.00	30.429 
11:55	39.8	39.8	39.8	60	27.1	1	3	90	0.00	30.429 
12:00	40.2	40.2	40.2	59	27.0	2	6	90	0.00	30.422 
12:05	40.6	40.6	40.6	59	27.4	2	5	22	0.00	30.422 
12:10	41.1	41.1	41.1	59	27.9	2	5	270	0.00	30.422 
12:15	41.5	41.5	41.5	54	26.1	3	12	248	0.00	30.411 
12:20	41.8	41.8	41.8	58	28.1	2	6	45	0.00	30.411 
12:25	42.2	42.2	42.2	56	27.6	2	5	68	0.00	30.411 
12:30	42.2	42.2	42.2	54	26.8	3	8	270	0.00	30.396 
12:35	42.1	42.1	42.1	56	27.5	1	5	225	0.00	30.396 
12:40	42.1	42.1	42.1	55	27.1	2	5	90	0.00	30.396 
12:45	41.9	41.9	41.9	54	26.5	2	7	248	0.00	30.386 
12:50	42.1	42.1	42.1	55	27.1	2	6	248	0.00	30.386 
12:55	42.2	42.2	42.2	55	27.2	3	9	248	0.00	30.386 
13:00	42.3	42.3	42.3	55	27.3	2	5	270	0.00	30.380 
13:05	42.5	42.5	42.5	54	27.0	2	7	90	0.00	30.380 
13:10	42.8	42.8	42.8	54	27.3	3	5	90	0.00	30.380 
13:15	43.2	43.2	43.2	54	27.7	1	4	248	0.00	30.367 
13:20	43.3	43.3	43.3	52	26.9	2	7	270	0.00	30.367 
13:25	43.5	43.5	43.5	52	27.1	2	7	248	0.00	30.367 
13:30	43.6	43.6	43.6	52	27.1	2	5	248	0.00	30.355 
13:35	43.8	43.8	43.8	50	26.4	2	6	248	0.00	30.355 
13:40	43.9	43.9	43.9	52	27.4	1	3	68	0.00	30.355 
13:45	44.1	44.1	44.1	52	27.6	2	4	292	0.00	30.352 
13:50	44.1	44.1	44.1	52	27.6	1	4	68	0.00	30.352 
13:55	44.2	44.2	44.2	52	27.7	1	4	90	0.00	30.352 
14:00	44.2	44.2	44.2	52	27.7	2	6	90	0.00	30.343 
14:05	44.2	44.2	44.2	52	27.7	2	4	90	0.00	30.343 
14:10	44.2	44.2	44.2	51	27.2	2	8	45	0.00	30.343 
14:15	44.3	44.3	44.3	53	28.3	2	5	90	0.00	30.334 
14:20	44.5	44.5	44.5	52	28.0	2	5	90	0.00	30.334 
14:25	44.6	44.6	44.6	51	27.6	2	5	90	0.00	30.334 
14:30	44.6	44.6	44.6	51	27.6	2	6	0	0.00	30.327 
14:35	44.8	44.8	44.8	51	27.8	3	7	90	0.00	30.327 
14:40	44.9	44.9	44.9	51	27.9	2	5	90	0.00	30.327 
14:45	45.1	45.1	45.1	51	28.1	2	6	248	0.00	30.320 
14:50	45.2	45.2	45.2	50	27.7	2	6	248	0.00	30.320 
14:55	45.2	45.2	45.2	50	27.7	3	6	248	0.00	30.320 
15:00	45.2	45.2	45.2	50	27.7	2	6	248	0.00	30.319 
15:05	45.4	45.4	45.4	50	27.9	3	7	248	0.00	30.319 
15:10	45.4	45.4	45.4	50	27.9	3	10	270	0.00	30.319 
15:15	45.4	45.4	45.4	50	27.9	3	7	270	0.00	30.315 
15:20	45.5	45.5	45.5	51	28.4	2	5	248	0.00	30.315 
15:25	45.7	45.7	45.7	51	28.6	3	6	90	0.00	30.315 
15:30	45.7	45.7	45.7	52	29.1	2	12	248	0.00	30.307 
15:35	45.8	45.8	45.8	51	28.7	2	7	90	0.00	30.307 
15:40	45.8	45.8	45.8	52	29.2	2	7	90	0.00	30.307 
15:45	46.0	46.0	46.0	51	28.9	3	8	90	0.00	30.297 
15:50	46.0	46.0	46.0	50	28.4	2	7	270	0.00	30.297 
15:55	46.0	46.0	46.0	52	29.4	3	7	90	0.00	30.297 
16:00	45.7	45.7	45.7	53	29.6	3	7	90	0.00	30.288 
16:05	45.5	45.5	45.5	52	28.9	2	6	90	0.00	30.288 
16:10	45.5	45.5	45.5	51	28.4	3	8	90	0.00	30.288 
16:15	45.4	45.4	45.4	52	28.8	2	6	90	0.00	30.292 
16:20	45.4	45.4	45.4	52	28.8	2	6	68	0.00	30.292 
16:25	45.2	45.2	45.2	53	29.1	2	5	270	0.00	30.292 
16:30	45.2	45.2	45.2	53	29.1	2	4	112	0.00	30.287 
16:35	45.2	45.2	45.2	53	29.1	1	4	90	0.00	30.287 
16:40	45.2	45.2	45.2	52	28.6	1	3	112	0.00	30.287 
16:45	45.2	45.2	45.2	52	28.6	2	6	90	0.00	30.285 
16:50	45.2	45.2	45.2	54	29.6	2	5	90	0.00	30.285 
16:55	45.1	45.1	45.1	54	29.5	1	2	112	0.00	30.285 
17:00	45.1	45.1	45.1	54	29.5	1	4	112	0.00	30.290 
17:05	44.9	44.9	44.9	54	29.3	1	3	68	0.00	30.290 
17:10	44.8	44.8	44.8	55	29.6	1	4	225	0.00	30.290 
17:15	44.8	44.8	44.8	54	29.2	1	4	90	0.00	30.284 
17:20	44.6	44.6	44.6	55	29.4	1	3	90	0.00	30.284 
17:25	44.5	44.5	44.5	55	29.3	1	4	90	0.00	30.284 
17:30	44.3	44.3	44.3	55	29.2	1	3	135	0.00	30.278 
17:35	44.2	44.2	44.2	55	29.1	1	2	112	0.00	30.278 
17:40	44.2	44.2	44.2	55	29.1	2	4	112	0.00	30.278 
17:45	44.1	44.1	44.1	56	29.4	1	3	112	0.00	30.281 
17:50	43.9	43.9	43.9	56	29.2	1	4	112	0.00	30.281 
17:55	43.8	43.8	43.8	57	29.6	1	3	90	0.00	30.281 
18:00	43.5	43.5	43.5	57	29.3	1	2	112	0.00	30.279 
18:05	43.3	43.3	43.3	57	29.1	1	3	112	0.00	30.279 
18:10	43.1	43.1	43.1	58	29.3	1	3	90	0.00	30.279 
18:15	43.1	43.1	43.1	58	29.3	1	2	135	0.00	30.277 
18:20	42.9	42.9	42.9	59	29.6	1	2	112	0.00	30.277 
18:25	42.8	42.8	42.8	59	29.5	1	4	112	0.00	30.277 
18:30	42.8	42.8	42.8	60	29.9	1	3	68	0.00	30.277 
18:35	42.6	42.6	42.6	60	29.7	1	3	90	0.00	30.277 
18:40	42.6	42.6	42.6	59	29.3	2	4	90	0.00	30.277 
18:45	42.8	42.8	42.8	59	29.5	2	4	90	0.00	30.276 
18:50	42.8	42.8	42.8	58	29.1	1	4	45	0.00	30.276 
18:55	42.9	42.9	42.9	58	29.2	2	5	315	0.00	30.276 
19:00	42.9	42.9	42.9	58	29.2	1	4	0	0.00	30.275 
19:05	42.9	42.9	42.9	57	28.7	2	9	112	0.00	30.275 
19:10	43.1	43.1	43.1	57	28.9	2	7	68	0.00	30.275 
19:15	43.1	43.1	43.1	56	28.5	2	6	270	0.00	30.277 
19:20	43.1	43.1	43.1	55	28.0	2	4	248	0.00	30.277 
19:25	43.1	43.1	43.1	55	28.0	2	4	270	0.00	30.277 
19:30	43.2	43.2	43.2	55	28.1	2	10	248	0.00	30.279 
19:35	43.2	43.2	43.2	54	27.7	2	5	248	0.00	30.279 
19:40	43.3	43.3	43.3	55	28.2	2	9	248	0.00	30.279 
19:45	43.2	43.2	43.2	55	28.1	2	7	248	0.00	30.275 
19:50	43.2	43.2	43.2	56	28.6	2	5	248	0.00	30.275 
19:55	43.2	43.2	43.2	56	28.6	2	4	270	0.00	30.275 
20:00	43.2	43.2	43.2	56	28.6	2	5	270	0.00	30.267 
20:05	43.1	43.1	43.1	56	28.5	1	4	270	0.00	30.267 
20:10	42.9	42.9	42.9	57	28.7	2	6	45	0.00	30.267 
20:15	42.8	42.8	42.8	57	28.6	2	9	270	0.00	30.258 
20:20	42.8	42.8	42.8	57	28.6	2	5	248	0.00	30.258 
20:25	42.6	42.6	42.6	57	28.4	2	4	248	0.00	30.258 
20:30	42.5	42.5	42.5	58	28.8	2	4	248	0.00	30.261 
20:35	42.5	42.5	42.5	58	28.8	1	4	248	0.00	30.261 
20:40	42.3	42.3	42.3	58	28.6	2	6	248	0.00	30.261 
20:45	42.3	42.3	42.3	58	28.6	1	3	270	0.00	30.258 
20:50	42.3	42.3	42.3	59	29.0	1	6	45	0.00	30.258 
20:55	42.3	42.3	42.3	59	29.0	1	4	248	0.00	30.258 
21:00	42.3	42.3	42.3	59	29.0	1	3	248	0.00	30.258 
21:05	42.3	42.3	42.3	59	29.0	2	4	248	0.00	30.258 
21:10	42.5	42.5	42.5	59	29.2	1	10	248	0.00	30.258 
21:15	42.5	42.5	42.5	59	29.2	2	6	270	0.00	30.253 
21:20	42.5	42.5	42.5	59	29.2	2	3	248	0.00	30.253 
21:25	42.5	42.5	42.5	59	29.2	1	5	248	0.00	30.253 
21:30	42.5	42.5	42.5	60	29.6	2	5	248	0.00	30.254 
21:35	42.5	42.5	42.5	60	29.6	1	5	270	0.00	30.254 
21:40	42.3	42.3	42.3	61	29.8	1	3	248	0.00	30.254 
21:45	42.3	42.3	42.3	61	29.8	1	5	248	0.00	30.254 
21:50	42.3	42.3	42.3	60	29.4	1	5	248	0.00	30.254 
21:55	42.2	42.2	42.2	61	29.7	1	4	248	0.00	30.254 
22:00	42.3	42.3	42.3	60	29.4	2	4	248	0.00	30.250 
22:05	42.3	42.3	42.3	61	29.8	1	4	270	0.00	30.250 
22:10	42.3	42.3	42.3	60	29.4	2	6	225	0.00	30.250 
22:15	42.2	42.2	42.2	62	30.1	1	2	315	0.00	30.238 
22:20	42.2	42.2	42.2	61	29.7	2	5	248	0.00	30.238 
22:25	42.2	42.2	42.2	61	29.7	2	5	248	0.00	30.238 
22:30	42.3	42.3	42.3	61	29.8	1	4	248	0.00	30.236 
22:35	42.3	42.3	42.3	61	29.8	2	4	248	0.00	30.236 
22:40	42.3	42.3	42.3	61	29.8	2	5	248	0.00	30.236 
22:45	42.5	42.5	42.5	60	29.6	3	6	248	0.00	30.235 
22:50	42.6	42.6	42.6	60	29.7	2	6	248	0.00	30.235 
22:55	42.8	42.8	42.8	60	29.9	3	7	248	0.00	30.235 
23:00	42.8	42.8	42.8	59	29.5	2	7	248	0.00	30.232 
23:05	42.9	42.9	42.9	59	29.6	3	7	248	0.00	30.232 
23:10	43.1	43.1	43.1	58	29.3	3	9	248	0.00	30.232 
23:15	43.2	41.0	43.2	58	29.4	4	7	248	0.00	30.226 
23:20	43.3	43.3	43.3	57	29.1	3	7	248	0.00	30.226 
23:25	43.3	43.3	43.3	58	29.5	3	7	248	0.00	30.226 
23:30	43.5	41.4	43.5	57	29.3	4	6	248	0.00	30.228 
23:35	43.5	41.4	43.5	57	29.3	4	8	248	0.00	30.228 
23:40	43.5	41.4	43.5	57	29.3	4	11	248	0.00	30.228 
23:45	43.5	43.5	43.5	57	29.3	3	5	248	0.00	30.225 
23:50	43.6	41.5	43.6	56	29.0	4	9	248	0.00	30.225 
23:55	43.6	43.6	43.6	57	29.4	3	6	248	0.00	30.225 

CoCoRaHS
IN-AL-39
A2 Web Hosting
Creative Commons License
GoDaddy
Look for:

loaded 2017-12-11 14:06:39 • last modified 2010-11-18 10:43:29
Privacy PolicyDisclaimer
• wx.awcolley.com is powered by PmWiki v.2002016 •
• all content (unless otherwise noted) © 2017 A W Colley